createdAt,value
2022-11-14T00:02:35.229Z,45646.03
2022-11-14T00:05:21.140Z,45654.03
2022-11-14T00:08:06.489Z,45654.03
2022-11-14T00:10:51.992Z,45648.03
2022-11-14T00:13:37.034Z,45646.03
2022-11-14T00:16:21.947Z,45658.03
2022-11-14T00:19:06.839Z,45670.03
2022-11-14T00:21:53.323Z,45640.03
2022-11-14T00:24:38.391Z,45638.06
2022-11-14T00:27:23.320Z,45662.03
2022-11-14T00:30:08.913Z,45642.03
2022-11-14T00:32:54.085Z,45646.03
2022-11-14T00:35:38.878Z,45666.03
2022-11-14T00:38:24.056Z,45666.03
2022-11-14T00:41:09.199Z,45668.03
2022-11-14T00:43:54.240Z,45650.03
2022-11-14T00:46:39.118Z,45672.03
2022-11-14T00:49:24.198Z,45694.00
2022-11-14T00:52:09.332Z,45646.03
2022-11-14T00:54:54.620Z,45636.06
2022-11-14T00:57:39.740Z,45670.03
2022-11-14T01:00:24.705Z,45658.03
2022-11-14T01:03:09.566Z,45650.03
2022-11-14T01:05:54.433Z,45650.03
2022-11-14T01:08:39.420Z,45656.03
2022-11-14T01:11:24.494Z,45674.03
2022-11-14T01:14:09.812Z,45664.03
2022-11-14T01:16:54.612Z,45656.03
2022-11-14T01:19:39.559Z,45658.03
2022-11-14T01:22:24.575Z,45662.03
2022-11-14T01:25:09.553Z,45666.03
2022-11-14T01:27:54.567Z,45650.03
2022-11-14T01:30:40.129Z,45654.03
2022-11-14T01:33:25.301Z,45664.03
2022-11-14T01:36:10.995Z,45676.03
2022-11-14T01:38:55.959Z,45662.03
2022-11-14T01:41:40.845Z,45658.03
2022-11-14T01:44:48.230Z,45688.00
2022-11-14T01:47:33.976Z,45666.03
2022-11-14T01:50:19.152Z,45674.03
2022-11-14T01:53:04.251Z,45686.00
2022-11-14T01:55:50.091Z,45666.03
2022-11-14T01:58:38.571Z,45682.00
2022-11-14T02:01:25.795Z,45692.00
2022-11-14T02:04:15.260Z,45686.00
2022-11-14T02:07:03.369Z,45678.03
2022-11-14T02:09:49.418Z,45686.00
2022-11-14T02:12:34.688Z,45686.00
2022-11-14T02:15:19.860Z,45696.00
2022-11-14T02:18:04.968Z,45702.00
2022-11-14T02:20:49.846Z,45678.03
2022-11-14T02:23:34.739Z,45694.00
2022-11-14T02:26:21.160Z,45676.03
2022-11-14T02:29:07.788Z,45684.00
2022-11-14T02:31:52.913Z,45678.03
2022-11-14T02:34:38.554Z,45692.00
2022-11-14T02:37:23.687Z,45696.00
2022-11-14T02:40:09.364Z,45678.03
2022-11-14T02:42:54.600Z,45690.00
2022-11-14T02:45:39.529Z,45674.03
2022-11-14T02:48:24.383Z,45678.03
2022-11-14T02:51:09.257Z,45694.00
2022-11-14T02:53:54.372Z,45698.00
2022-11-14T02:56:39.208Z,45684.00
2022-11-14T02:59:24.029Z,45698.00
2022-11-14T03:02:08.945Z,45688.00
2022-11-14T03:04:54.000Z,45682.00
2022-11-14T03:07:39.204Z,45682.00
2022-11-14T03:10:24.540Z,45686.00
2022-11-14T03:13:09.521Z,45706.00
2022-11-14T03:15:54.419Z,45710.00
2022-11-14T03:18:39.303Z,45686.00
2022-11-14T03:21:24.232Z,45706.00
2022-11-14T03:24:09.120Z,45682.00
2022-11-14T03:26:54.008Z,45696.00
2022-11-14T03:29:38.795Z,45706.00
2022-11-14T03:32:23.734Z,45706.00
2022-11-14T03:35:09.199Z,45690.00
2022-11-14T03:37:56.645Z,45694.00
2022-11-14T03:40:42.670Z,45688.00
2022-11-14T03:43:31.399Z,45702.00
2022-11-14T03:46:16.704Z,45692.00
2022-11-14T03:49:02.307Z,45702.00
2022-11-14T03:51:48.085Z,45714.00
2022-11-14T03:54:33.368Z,45706.00
2022-11-14T03:57:18.139Z,45718.00
2022-11-14T04:00:03.911Z,45708.00
2022-11-14T04:02:48.828Z,45722.00
2022-11-14T04:05:33.800Z,45706.00
2022-11-14T04:08:18.669Z,45706.00
2022-11-14T04:11:03.492Z,45690.00
2022-11-14T04:13:48.382Z,45702.00
2022-11-14T04:16:33.397Z,45698.00
2022-11-14T04:19:18.298Z,45696.00
2022-11-14T04:22:03.588Z,45722.00
2022-11-14T04:24:48.817Z,45682.00
2022-11-14T04:27:34.523Z,45724.00
2022-11-14T04:30:19.333Z,45702.00
2022-11-14T04:33:04.406Z,45729.97
2022-11-14T04:35:49.186Z,45708.00
2022-11-14T04:38:34.024Z,45718.00
2022-11-14T04:41:18.927Z,45706.00
2022-11-14T04:44:04.016Z,45720.00
2022-11-14T04:46:48.784Z,45722.00
2022-11-14T04:49:33.755Z,45720.00
2022-11-14T04:52:18.740Z,45710.00
2022-11-14T04:55:03.980Z,45714.00
2022-11-14T04:57:54.900Z,45729.97
2022-11-14T05:00:40.089Z,45733.97
2022-11-14T05:03:25.792Z,45696.00
2022-11-14T05:06:11.117Z,45724.00
2022-11-14T05:08:56.087Z,45741.97
2022-11-14T05:11:41.197Z,45743.97
2022-11-14T05:14:26.142Z,45722.00
2022-11-14T05:17:11.107Z,45718.00
2022-11-14T05:19:56.181Z,45737.97
2022-11-14T05:22:41.051Z,45722.00
2022-11-14T05:25:26.337Z,45718.00
2022-11-14T05:28:11.454Z,45710.00
2022-11-14T05:31:02.789Z,45733.97
2022-11-14T05:33:48.030Z,45729.97
2022-11-14T05:36:33.109Z,45722.00
2022-11-14T05:39:18.159Z,45722.00
2022-11-14T05:42:03.273Z,45714.00
2022-11-14T05:44:48.460Z,45714.00
2022-11-14T05:47:33.468Z,45725.97
2022-11-14T05:50:18.303Z,45718.00
2022-11-14T05:53:03.042Z,45712.00
2022-11-14T05:55:47.986Z,45716.00
2022-11-14T05:58:34.844Z,45735.97
2022-11-14T06:01:20.333Z,45722.00
2022-11-14T06:04:06.453Z,45722.00
2022-11-14T06:06:51.531Z,45720.00
2022-11-14T06:09:36.271Z,45731.97
2022-11-14T06:12:21.207Z,45733.97
2022-11-14T06:15:06.621Z,45722.00
2022-11-14T06:17:54.936Z,45737.97
2022-11-14T06:20:40.052Z,45745.97
2022-11-14T06:23:25.207Z,45733.97
2022-11-14T06:26:24.444Z,45718.00
2022-11-14T06:29:10.143Z,45737.97
2022-11-14T06:31:55.253Z,45722.00
2022-11-14T06:34:40.166Z,45722.00
2022-11-14T06:37:25.168Z,45720.00
2022-11-14T06:40:10.777Z,45710.00
2022-11-14T06:42:56.591Z,45737.97
2022-11-14T06:45:41.885Z,45737.97
2022-11-14T06:48:26.986Z,45735.97
2022-11-14T06:51:13.211Z,45725.97
2022-11-14T06:53:58.669Z,45718.00
2022-11-14T06:56:43.735Z,45729.97
2022-11-14T06:59:28.652Z,45718.00
2022-11-14T07:02:20.489Z,45729.97
2022-11-14T07:05:06.697Z,45733.97
2022-11-14T07:07:51.898Z,45737.97
2022-11-14T07:10:36.936Z,45735.97
2022-11-14T07:13:21.872Z,45737.97
2022-11-14T07:16:07.239Z,45749.97
2022-11-14T07:18:52.379Z,45745.97
2022-11-14T07:21:37.191Z,45743.97
2022-11-14T07:24:22.030Z,45727.97
2022-11-14T07:27:09.141Z,45733.97
2022-11-14T07:29:54.288Z,45743.97
2022-11-14T07:32:39.109Z,45745.97
2022-11-14T07:35:24.914Z,45724.00
2022-11-14T07:38:09.898Z,45694.00
2022-11-14T07:41:00.528Z,45731.97
2022-11-14T07:43:46.132Z,45716.00
2022-11-14T07:46:30.991Z,45722.00
2022-11-14T07:49:16.007Z,45718.00
2022-11-14T07:52:01.069Z,45710.00
2022-11-14T07:54:46.000Z,45714.00
2022-11-14T07:57:35.454Z,45710.00
2022-11-14T08:00:23.840Z,45722.00
2022-11-14T08:03:09.162Z,45710.00
2022-11-14T08:06:09.493Z,45704.00
2022-11-14T08:08:54.505Z,45670.03
2022-11-14T08:11:48.895Z,45668.03
2022-11-14T08:14:34.393Z,45666.03
2022-11-14T08:17:21.321Z,45690.00
2022-11-14T08:20:08.319Z,45658.03
2022-11-14T08:22:54.545Z,45668.03
2022-11-14T08:25:39.929Z,45624.06
2022-11-14T08:28:25.216Z,45668.03
2022-11-14T08:31:10.771Z,45658.03
2022-11-14T08:33:56.350Z,45642.03
2022-11-14T08:36:41.205Z,45638.06
2022-11-14T08:39:26.163Z,45642.03
2022-11-14T08:42:11.042Z,45646.03
2022-11-14T08:44:56.033Z,45638.06
2022-11-14T08:47:40.961Z,45620.06
2022-11-14T08:50:25.883Z,45622.06
2022-11-14T08:53:11.524Z,45622.06
2022-11-14T08:55:56.734Z,45624.06
2022-11-14T08:58:42.002Z,45626.06
2022-11-14T09:01:26.857Z,45624.06
2022-11-14T09:04:12.136Z,45634.06
2022-11-14T09:06:58.791Z,45610.06
2022-11-14T09:09:43.590Z,45622.06
2022-11-14T09:12:28.820Z,45602.06
2022-11-14T09:15:13.948Z,45612.06
2022-11-14T09:17:58.703Z,45630.06
2022-11-14T09:20:43.497Z,45602.06
2022-11-14T09:23:28.633Z,45606.06
2022-11-14T09:26:16.217Z,45614.06
2022-11-14T09:29:02.105Z,45592.09
2022-11-14T09:31:47.324Z,45602.06
2022-11-14T09:34:32.205Z,45590.09
2022-11-14T09:37:17.311Z,45594.09
2022-11-14T09:40:03.486Z,45602.06
2022-11-14T09:43:07.304Z,45596.06
2022-11-14T09:45:53.288Z,45614.06
2022-11-14T09:48:38.541Z,45610.06
2022-11-14T09:51:27.669Z,45606.06
2022-11-14T09:54:29.208Z,45608.06
2022-11-14T09:57:17.424Z,45594.09
2022-11-14T10:00:23.071Z,45576.09
2022-11-14T10:03:35.977Z,45584.09
2022-11-14T10:06:25.336Z,45592.09
2022-11-14T10:09:33.443Z,45608.06
2022-11-14T10:12:26.880Z,45606.06
2022-11-14T10:15:14.852Z,45602.06
2022-11-14T10:18:31.160Z,45606.06
2022-11-14T10:21:28.368Z,45584.09
2022-11-14T10:24:29.841Z,45586.09
2022-11-14T10:27:42.899Z,45584.09
2022-11-14T10:30:39.488Z,45570.09
2022-11-14T10:33:52.021Z,45610.06
2022-11-14T10:36:55.933Z,45586.09
2022-11-14T10:39:43.764Z,45562.09
2022-11-14T10:42:38.319Z,45610.06
2022-11-14T10:45:35.940Z,45564.09
2022-11-14T10:48:30.442Z,45576.09
2022-11-14T10:51:39.780Z,45554.09
2022-11-14T10:54:37.170Z,45568.09
2022-11-14T10:57:22.601Z,45582.09
2022-11-14T11:00:19.556Z,45594.09
2022-11-14T11:03:04.455Z,45588.09
2022-11-14T11:05:52.059Z,45564.09
2022-11-14T11:09:02.798Z,45570.09
2022-11-14T11:11:59.418Z,45600.06
2022-11-14T11:14:45.768Z,45576.09
2022-11-14T11:17:37.071Z,45594.09
2022-11-14T11:20:34.622Z,45566.09
2022-11-14T11:23:25.375Z,45574.09
2022-11-14T11:26:19.787Z,45602.06
2022-11-14T11:29:06.578Z,45586.09
2022-11-14T11:31:54.704Z,45560.09
2022-11-14T11:34:40.370Z,45568.09
2022-11-14T11:40:22.712Z,45586.09
2022-11-14T11:46:42.992Z,45562.09
2022-11-14T11:49:31.014Z,45560.09
2022-11-14T11:52:44.175Z,45554.09
2022-11-14T11:55:37.643Z,45558.09
2022-11-14T11:58:27.988Z,45526.13
2022-11-14T12:01:14.076Z,45538.13
2022-11-14T12:04:00.668Z,45534.13
2022-11-14T12:06:57.221Z,45550.13
2022-11-14T12:10:09.268Z,45528.13
2022-11-14T12:13:21.407Z,45540.13
2022-11-14T12:16:19.536Z,45544.13
2022-11-14T12:19:07.398Z,45530.13
2022-11-14T12:22:03.724Z,45540.13
2022-11-14T12:25:08.407Z,45542.13
2022-11-14T12:28:13.668Z,45534.13
2022-11-14T12:31:03.354Z,45530.13
2022-11-14T12:33:55.914Z,45518.13
2022-11-14T12:36:44.636Z,45522.13
2022-11-14T12:39:31.523Z,45538.13
2022-11-14T12:42:21.012Z,45506.16
2022-11-14T12:45:41.247Z,45494.16
2022-11-14T12:48:26.249Z,45514.13
2022-11-14T12:51:29.349Z,45530.13
2022-11-14T12:54:44.520Z,45506.16
2022-11-14T12:58:01.586Z,45498.16
2022-11-14T13:00:46.737Z,45518.13
2022-11-14T13:03:40.725Z,45506.16
2022-11-14T13:06:46.873Z,45510.16
2022-11-14T13:09:54.486Z,45526.13
2022-11-14T13:13:01.324Z,45524.13
2022-11-14T13:16:13.451Z,45534.13
2022-11-14T13:19:30.836Z,45522.13
2022-11-14T13:22:15.967Z,45528.13
2022-11-14T13:25:01.139Z,45530.13
2022-11-14T13:28:07.944Z,45538.13
2022-11-14T13:31:16.774Z,45554.09
2022-11-14T13:34:37.489Z,45516.13
2022-11-14T13:37:48.406Z,45518.13
2022-11-14T13:40:39.878Z,45542.13
2022-11-14T13:43:47.534Z,45526.13
2022-11-14T13:46:54.315Z,45522.13
2022-11-14T13:49:59.084Z,45522.13
2022-11-14T13:52:47.545Z,45538.13
2022-11-14T13:55:56.330Z,45530.13
2022-11-14T13:59:17.036Z,45526.13
2022-11-14T14:02:22.120Z,45526.13
2022-11-14T14:05:20.893Z,45538.13
2022-11-14T14:08:19.939Z,45514.13
2022-11-14T14:11:23.724Z,45524.13
2022-11-14T14:14:17.870Z,45544.13
2022-11-14T14:17:35.540Z,45534.13
2022-11-14T14:20:51.067Z,45526.13
2022-11-14T14:23:55.064Z,45552.13
2022-11-14T14:26:59.061Z,45542.13
2022-11-14T14:30:08.626Z,45530.13
2022-11-14T14:33:11.963Z,45546.13
2022-11-14T14:35:57.271Z,45538.13
2022-11-14T14:38:42.225Z,45534.13
2022-11-14T14:41:31.741Z,45538.13
2022-11-14T14:44:22.886Z,45546.13
2022-11-14T14:47:34.081Z,45546.13
2022-11-14T14:50:22.332Z,45550.13
2022-11-14T14:53:18.557Z,45528.13
2022-11-14T14:56:18.331Z,45534.13
2022-11-14T14:59:17.237Z,45546.13
2022-11-14T15:02:02.517Z,45542.13
2022-11-14T15:04:47.363Z,45518.13
2022-11-14T15:07:32.906Z,45538.13
2022-11-14T15:10:29.484Z,45554.09
2022-11-14T15:13:16.028Z,45538.13
2022-11-14T15:16:03.234Z,45550.13
2022-11-14T15:18:50.491Z,45530.13
2022-11-14T15:21:35.424Z,45538.13
2022-11-14T15:24:23.903Z,45534.13
2022-11-14T15:27:14.532Z,45526.13
2022-11-14T15:30:06.141Z,45522.13
2022-11-14T15:32:56.901Z,45542.13
2022-11-14T15:35:42.228Z,45534.13
2022-11-14T15:38:44.263Z,45534.13
2022-11-14T15:41:31.723Z,45510.16
2022-11-14T15:44:33.864Z,45518.13
2022-11-14T15:47:39.443Z,45526.13
2022-11-14T15:50:33.107Z,45530.13
2022-11-14T15:53:23.549Z,45522.13
2022-11-14T15:56:11.623Z,45546.13
2022-11-14T15:58:56.733Z,45538.13
2022-11-14T16:01:44.269Z,45526.13
2022-11-14T16:04:44.397Z,45528.13
2022-11-14T16:07:32.318Z,45526.13
2022-11-14T16:10:23.238Z,45562.09
2022-11-14T16:13:08.130Z,45542.13
2022-11-14T16:15:53.071Z,45538.13
2022-11-14T16:18:37.912Z,45530.13
2022-11-14T16:21:22.794Z,45534.13
2022-11-14T16:24:14.055Z,45550.13
2022-11-14T16:26:58.991Z,45530.13
2022-11-14T16:29:44.000Z,45538.13
2022-11-14T16:32:28.864Z,45546.13
2022-11-14T16:35:16.720Z,45538.13
2022-11-14T16:38:01.982Z,45526.13
2022-11-14T16:40:47.157Z,45544.13
2022-11-14T16:43:32.305Z,45522.13
2022-11-14T16:46:17.583Z,45538.13
2022-11-14T16:49:02.891Z,45538.13
2022-11-14T16:51:50.434Z,45540.13
2022-11-14T16:54:35.510Z,45542.13
2022-11-14T16:57:20.498Z,45526.13
2022-11-14T17:00:08.222Z,45548.13
2022-11-14T17:02:53.431Z,45534.13
2022-11-14T17:05:46.146Z,45538.13
2022-11-14T17:08:31.395Z,45550.13
2022-11-14T17:11:16.344Z,45544.13
2022-11-14T17:14:01.349Z,45546.13
2022-11-14T17:16:46.668Z,45538.13
2022-11-14T17:19:31.570Z,45556.09
2022-11-14T17:22:17.757Z,45540.13
2022-11-14T17:25:03.139Z,45560.09
2022-11-14T17:27:48.925Z,45556.09
2022-11-14T17:30:33.695Z,45546.13
2022-11-14T17:33:18.582Z,45542.13
2022-11-14T17:36:09.015Z,45552.13
2022-11-14T17:38:54.161Z,45540.13
2022-11-14T17:41:39.078Z,45528.13
2022-11-14T17:44:23.942Z,45538.13
2022-11-14T17:47:08.686Z,45546.13
2022-11-14T17:49:53.852Z,45542.13
2022-11-14T17:52:40.880Z,45528.13
2022-11-14T17:55:26.048Z,45554.09
2022-11-14T17:58:12.076Z,45542.13
2022-11-14T18:01:00.831Z,45548.13
2022-11-14T18:03:46.366Z,45556.09
2022-11-14T18:06:33.296Z,45552.13
2022-11-14T18:09:18.491Z,45544.13
2022-11-14T18:12:03.559Z,45566.09
2022-11-14T18:14:48.705Z,45546.13
2022-11-14T18:17:33.570Z,45552.13
2022-11-14T18:20:18.582Z,45538.13
2022-11-14T18:23:03.807Z,45550.13
2022-11-14T18:25:48.626Z,45564.09
2022-11-14T18:28:33.719Z,45530.13
2022-11-14T18:31:18.888Z,45562.09
2022-11-14T18:34:03.884Z,45566.09
2022-11-14T18:36:49.362Z,45546.13
2022-11-14T18:39:34.451Z,45550.13
2022-11-14T18:42:19.428Z,45542.13
2022-11-14T18:45:04.747Z,45548.13
2022-11-14T18:47:49.591Z,45534.13
2022-11-14T18:50:34.664Z,45562.09
2022-11-14T18:53:19.496Z,45542.13
2022-11-14T18:56:06.284Z,45540.13
2022-11-14T18:58:56.040Z,45552.13
2022-11-14T19:01:41.194Z,45580.09
2022-11-14T19:04:26.371Z,45546.13
2022-11-14T19:07:11.423Z,45558.09
2022-11-14T19:09:56.679Z,45534.13
2022-11-14T19:12:42.625Z,45538.13
2022-11-14T19:15:27.540Z,45558.09
2022-11-14T19:18:12.458Z,45530.13
2022-11-14T19:21:02.342Z,45566.09
2022-11-14T19:23:47.384Z,45556.09
2022-11-14T19:26:33.380Z,45570.09
2022-11-14T19:29:18.466Z,45592.09
2022-11-14T19:32:04.248Z,45558.09
2022-11-14T19:34:49.697Z,45570.09
2022-11-14T19:37:34.638Z,45550.13
2022-11-14T19:40:19.924Z,45572.09
2022-11-14T19:43:07.150Z,45566.09
2022-11-14T19:45:51.994Z,45582.09
2022-11-14T19:48:37.886Z,45560.09
2022-11-14T19:51:23.016Z,45566.09
2022-11-14T19:54:09.962Z,45562.09
2022-11-14T19:56:55.107Z,45570.09
2022-11-14T19:59:40.418Z,45586.09
2022-11-14T20:02:25.785Z,45562.09
2022-11-14T20:05:10.708Z,45596.06
2022-11-14T20:07:57.164Z,45562.09
2022-11-14T20:10:48.285Z,45582.09
2022-11-14T20:13:36.501Z,45574.09
2022-11-14T20:16:25.240Z,45586.09
2022-11-14T20:19:10.121Z,45590.09
2022-11-14T20:21:55.453Z,45580.09
2022-11-14T20:24:40.484Z,45586.09
2022-11-14T20:27:25.427Z,45574.09
2022-11-14T20:30:10.585Z,45572.09
2022-11-14T20:32:55.851Z,45596.06
2022-11-14T20:35:40.674Z,45586.09
2022-11-14T20:38:25.644Z,45568.09
2022-11-14T20:41:12.324Z,45582.09
2022-11-14T20:43:57.615Z,45574.09
2022-11-14T20:46:42.543Z,45590.09
2022-11-14T20:49:27.467Z,45570.09
2022-11-14T20:52:12.368Z,45562.09
2022-11-14T20:54:57.278Z,45582.09
2022-11-14T20:57:42.202Z,45562.09
2022-11-14T21:00:27.247Z,45574.09
2022-11-14T21:03:12.312Z,45582.09
2022-11-14T21:05:57.591Z,45584.09
2022-11-14T21:08:43.290Z,45586.09
2022-11-14T21:11:28.459Z,45562.09
2022-11-14T21:14:13.438Z,45570.09
2022-11-14T21:16:58.750Z,45574.09
2022-11-14T21:19:43.565Z,45562.09
2022-11-14T21:22:28.474Z,45574.09
2022-11-14T21:25:13.547Z,45570.09
2022-11-14T21:27:58.508Z,45562.09
2022-11-14T21:30:43.572Z,45586.09
2022-11-14T21:33:30.477Z,45558.09
2022-11-14T21:39:23.339Z,45562.09
2022-11-14T21:42:08.560Z,45564.09
2022-11-14T21:44:53.638Z,45562.09
2022-11-14T21:47:38.544Z,45570.09
2022-11-14T21:50:23.615Z,45570.09
2022-11-14T21:53:15.740Z,45574.09
2022-11-14T21:56:16.790Z,45574.09
2022-11-14T21:59:13.177Z,45550.13
2022-11-14T22:02:17.556Z,45548.13
2022-11-14T22:05:02.741Z,45560.09
2022-11-14T22:07:47.730Z,45568.09
2022-11-14T22:10:32.697Z,45568.09
2022-11-14T22:13:18.178Z,45554.09
2022-11-14T22:16:08.070Z,45554.09
2022-11-14T22:18:54.004Z,45550.13
2022-11-14T22:21:39.143Z,45550.13
2022-11-14T22:24:24.132Z,45562.09
2022-11-14T22:27:09.250Z,45550.13
2022-11-14T22:29:54.295Z,45550.13
2022-11-14T22:32:39.575Z,45546.13
2022-11-14T22:35:24.431Z,45546.13
2022-11-14T22:38:09.454Z,45558.09
2022-11-14T22:40:56.235Z,45546.13
2022-11-14T22:43:41.523Z,45542.13
2022-11-14T22:46:27.156Z,45546.13
2022-11-14T22:49:14.212Z,45546.13
2022-11-14T22:52:02.402Z,45554.09
2022-11-14T22:54:47.187Z,45566.09
2022-11-14T22:57:32.314Z,45558.09
2022-11-14T23:00:17.724Z,45546.13
2022-11-14T23:03:02.626Z,45526.13
2022-11-14T23:05:48.252Z,45522.13
2022-11-14T23:08:34.148Z,45542.13
2022-11-14T23:11:22.276Z,45546.13
2022-11-14T23:14:07.629Z,45560.09
2022-11-14T23:16:52.565Z,45542.13
2022-11-14T23:19:37.884Z,45526.13
2022-11-14T23:22:22.588Z,45534.13
2022-11-14T23:25:08.006Z,45538.13
2022-11-14T23:27:53.660Z,45526.13
2022-11-14T23:30:38.756Z,45528.13
2022-11-14T23:33:23.761Z,45536.13
2022-11-14T23:36:08.890Z,45558.09
2022-11-14T23:38:54.287Z,45530.13
2022-11-14T23:41:39.297Z,45528.13
2022-11-14T23:44:24.151Z,45528.13
2022-11-14T23:47:09.162Z,45542.13
2022-11-14T23:49:54.359Z,45536.13
2022-11-14T23:52:39.308Z,45542.13
2022-11-14T23:55:24.098Z,45530.13
2022-11-14T23:58:09.158Z,45514.13
